Time;durP1;ratioP1;P1;durP2;ratioP2;P2;SDS_P1;SDS_P2;PMS_P1;PMS_P2;Temp;Humidity;BMP_temperature;BMP_pressure;BME280_temperature;BME280_humidity;BME280_pressure;Samples;Min_cycle;Max_cycle;Signal;HPM_P1;HPM_P2
2022/11/11 00:00:59;;;;;;;25.13;15.05;;;;;;;6.52;75.25;100530.50;4960374;28;20406;-92
2022/11/11 00:03:25;;;;;;;33.78;16.38;;;;;;;6.46;75.54;100540.19;4959398;28;20452;-92
2022/11/11 00:05:51;;;;;;;29.35;15.55;;;;;;;6.46;75.50;100521.47;4960128;28;20022;-91
2022/11/11 00:08:16;;;;;;;32.25;15.73;;;;;;;6.51;75.16;100532.34;4953519;28;20031;-92
2022/11/11 00:10:42;;;;;;;25.23;15.52;;;;;;;6.48;75.47;100530.09;4960539;28;20037;-91
2022/11/11 00:13:08;;;;;;;29.13;15.50;;;;;;;6.48;75.13;100520.22;4958064;28;20029;-92
2022/11/11 00:15:35;;;;;;;25.52;14.93;;;;;;;6.48;75.09;100522.06;4957270;28;20019;-92
2022/11/11 00:26:13;;;;;;;25.88;14.82;;;;;;;6.42;74.90;100523.75;4976884;28;20174;-92
2022/11/11 00:28:39;;;;;;;27.08;15.10;;;;;;;6.39;75.14;100521.50;4944366;28;20086;-92
2022/11/11 00:31:09;;;;;;;24.67;14.77;;;;;;;6.45;74.61;100530.50;4959432;28;20030;-92
2022/11/11 00:33:34;;;;;;;25.55;14.73;;;;;;;6.41;74.94;100529.28;4942834;28;20034;-92
2022/11/11 00:36:00;;;;;;;26.88;15.25;;;;;;;6.41;74.41;100530.13;4959941;28;20400;-92
2022/11/11 00:41:13;;;;;;;30.23;14.60;;;;;;;6.41;74.65;100527.47;4977813;28;20507;-92
2022/11/11 00:43:39;;;;;;;28.17;14.65;;;;;;;6.38;74.93;100527.88;4944252;28;20038;-92
2022/11/11 00:51:32;;;;;;;27.05;15.38;;;;;;;6.50;74.43;100527.22;4962233;28;20038;-92
2022/11/11 00:53:57;;;;;;;31.00;16.08;;;;;;;6.51;74.25;100528.84;4943819;28;20029;-91
2022/11/11 00:56:23;;;;;;;27.95;14.23;;;;;;;6.45;73.90;100514.47;4942753;28;20027;-92
2022/11/11 00:58:48;;;;;;;27.25;15.40;;;;;;;6.40;73.63;100523.13;4975571;28;20552;-91
2022/11/11 01:01:14;;;;;;;24.65;13.65;;;;;;;6.40;73.68;100520.47;4943507;28;20045;-92
2022/11/11 01:03:40;;;;;;;28.83;15.63;;;;;;;6.30;73.66;100509.38;4945877;28;20038;-92
2022/11/11 01:06:05;;;;;;;22.75;14.27;;;;;;;6.29;73.50;100518.47;4959389;28;20117;-92
2022/11/11 01:08:31;;;;;;;31.67;15.23;;;;;;;6.25;73.71;100525.25;4941283;28;20029;-92
2022/11/11 01:10:56;;;;;;;28.00;14.75;;;;;;;6.17;74.16;100528.97;4943848;28;20026;-92
2022/11/11 01:13:30;;;;;;;27.52;15.68;;;;;;;6.18;74.08;100530.59;4959705;28;20026;-91
2022/11/11 01:16:00;;;;;;;26.83;14.43;;;;;;;6.04;74.51;100521.81;4945217;28;21972;-90
2022/11/11 01:18:26;;;;;;;30.33;16.83;;;;;;;6.11;74.49;100519.13;4961541;28;20042;-92
2022/11/11 01:20:59;;;;;;;22.92;15.15;;;;;;;5.96;74.75;100503.34;4947114;28;20022;-92
2022/11/11 01:23:24;;;;;;;32.80;16.73;;;;;;;5.93;75.41;100511.72;4961190;28;20497;-92
2022/11/11 01:25:51;;;;;;;31.50;16.30;;;;;;;5.90;75.68;100500.66;4979005;28;20029;-92
2022/11/11 01:28:17;;;;;;;26.75;15.65;;;;;;;5.91;75.79;100502.28;4946351;28;20073;-92
2022/11/11 01:30:42;;;;;;;29.85;15.70;;;;;;;5.96;75.60;100514.03;4962979;28;20120;-92
2022/11/11 01:33:08;;;;;;;27.40;14.98;;;;;;;6.07;75.51;100512.56;4956279;28;20125;-91
2022/11/11 01:35:37;;;;;;;28.67;17.10;;;;;;;6.06;76.02;100521.63;4979195;28;20455;-91
2022/11/11 01:38:02;;;;;;;29.85;15.23;;;;;;;6.01;75.36;100500.84;4955587;28;20062;-93
2022/11/11 01:40:28;;;;;;;37.83;18.27;;;;;;;6.00;75.51;100499.22;4978427;28;20026;-92
2022/11/11 01:43:13;;;;;;;39.97;19.45;;;;;;;6.11;75.83;100513.78;4956438;28;20031;-92
2022/11/11 01:45:45;;;;;;;36.50;19.63;;;;;;;6.08;75.54;100511.53;4970376;28;20029;-91
2022/11/11 01:51:38;;;;;;;29.33;15.70;;;;;;;6.13;76.20;100511.72;4980282;28;20048;-92
2022/11/11 01:54:28;;;;;;;36.92;17.73;;;;;;;6.02;75.95;100497.16;4978332;28;20022;-91
2022/11/11 01:56:58;;;;;;;37.88;18.42;;;;;;;6.14;75.64;100512.53;4958664;28;20034;-91
2022/11/11 01:59:23;;;;;;;44.97;22.35;;;;;;;6.11;75.88;100488.91;4978481;28;20034;-91
2022/11/11 02:01:49;;;;;;;48.65;22.92;;;;;;;6.05;76.30;100496.72;4961451;28;20031;-92
2022/11/11 02:07:00;;;;;;;33.92;20.58;;;;;;;6.22;74.48;100496.25;4978867;28;20037;-91
2022/11/11 02:09:25;;;;;;;39.80;20.05;;;;;;;6.14;75.29;100505.31;4946368;28;20021;-92
2022/11/11 02:14:41;;;;;;;33.03;18.00;;;;;;;6.17;74.65;100499.56;4979860;28;20037;-92
2022/11/11 02:17:07;;;;;;;;;;;;;;;6.16;74.60;100508.59;4946144;28;20034;-92
2022/11/11 02:19:57;;;;;;;35.58;17.58;;;;;;;6.19;74.54;100515.41;4961763;28;19914;-91
2022/11/11 02:22:27;;;;;;;28.80;16.08;;;;;;;6.03;75.31;100506.81;4948071;28;20064;-91
2022/11/11 02:24:53;;;;;;;33.78;16.35;;;;;;;6.01;74.95;100497.34;4961721;28;20030;-92
2022/11/11 02:27:18;;;;;;;30.58;17.90;;;;;;;5.99;74.34;100494.88;4945265;28;20030;-91
2022/11/11 02:29:46;;;;;;;34.67;17.60;;;;;;;6.02;74.83;100517.72;4961621;28;20030;-92
2022/11/11 02:32:11;;;;;;;27.70;14.60;;;;;;;5.88;75.10;100490.16;4959917;28;20040;-92
2022/11/11 02:34:36;;;;;;;34.50;15.15;;;;;;;5.81;74.37;100492.03;4961918;28;20026;-91
2022/11/11 02:37:03;;;;;;;26.83;15.15;;;;;;;5.88;73.87;100515.03;4959205;28;20030;-92
2022/11/11 02:39:29;;;;;;;34.17;16.95;;;;;;;5.82;74.03;100510.53;4945903;28;20033;-91
2022/11/11 02:41:57;;;;;;;35.35;16.33;;;;;;;5.82;74.01;100510.53;4962292;28;20034;-91
2022/11/11 02:44:23;;;;;;;28.08;15.38;;;;;;;5.78;74.06;100503.97;4977915;28;20026;-91
2022/11/11 02:46:49;;;;;;;35.28;16.10;;;;;;;5.72;74.41;100501.31;4959969;28;20090;-92
2022/11/11 02:49:14;;;;;;;29.88;16.35;;;;;;;5.73;74.55;100501.09;4961457;28;20033;-91
2022/11/11 02:51:40;;;;;;;34.03;16.33;;;;;;;5.77;74.37;100502.34;4960222;28;20030;-92
2022/11/11 02:54:05;;;;;;;26.95;16.27;;;;;;;5.82;74.20;100517.72;4961625;28;20022;-92
2022/11/11 02:59:15;;;;;;;30.75;16.63;;;;;;;5.82;75.01;100499.03;4979164;28;20515;-92
2022/11/11 03:01:40;;;;;;;28.98;16.08;;;;;;;6.01;73.76;100510.72;4944187;28;20058;-92
2022/11/11 03:04:06;;;;;;;34.17;15.65;;;;;;;6.17;75.09;100504.09;4945237;28;20014;-92
2022/11/11 03:06:31;;;;;;;31.08;14.20;;;;;;;6.34;75.40;100501.75;4960683;28;20480;-92
2022/11/11 03:08:57;;;;;;;26.95;14.88;;;;;;;6.47;74.82;100505.22;4960474;28;20030;-92
2022/11/11 03:11:28;;;;;;;25.48;15.30;;;;;;;6.57;74.58;100512.75;4945034;28;20023;-92
2022/11/11 03:13:54;;;;;;;23.52;13.82;;;;;;;6.62;74.19;100512.09;4961952;28;20061;-92
2022/11/11 03:19:04;;;;;;;37.03;16.83;;;;;;;6.38;74.30;100508.34;4964523;28;20032;-92
2022/11/11 03:21:29;;;;;;;26.80;15.88;;;;;;;6.42;73.24;100513.03;4944584;28;20026;-92
2022/11/11 03:23:54;;;;;;;37.90;16.35;;;;;;;6.31;72.76;100504.84;4944542;28;20579;-92
2022/11/11 03:26:20;;;;;;;29.70;15.80;;;;;;;6.45;72.48;100520.66;4945034;28;20037;-93
2022/11/11 03:28:45;;;;;;;30.95;16.85;;;;;;;6.42;72.38;100506.88;4944748;28;20034;-91
2022/11/11 03:31:11;;;;;;;28.40;16.23;;;;;;;6.32;72.46;100501.16;4943164;28;20559;-92
2022/11/11 03:33:36;;;;;;;28.80;16.20;;;;;;;6.22;72.31;100505.09;4944468;28;20026;-92
2022/11/11 03:36:02;;;;;;;30.30;16.00;;;;;;;6.14;72.05;100510.66;4944792;28;20018;-92
2022/11/11 03:38:39;;;;;;;32.50;15.65;;;;;;;6.01;72.12;100513.41;4936151;28;20037;-93
2022/11/11 03:41:05;;;;;;;30.95;15.25;;;;;;;5.90;72.23;100514.84;4961642;28;20049;-93
2022/11/11 03:43:32;;;;;;;30.48;16.05;;;;;;;5.89;72.73;100523.88;4961170;28;20034;-92
2022/11/11 03:46:22;;;;;;;28.90;15.75;;;;;;;5.75;73.17;100528.44;4944408;28;20030;-92
2022/11/11 03:48:48;;;;;;;24.02;14.80;;;;;;;5.51;73.46;100516.53;4961418;28;20036;-92
2022/11/11 03:51:13;;;;;;;24.50;14.15;;;;;;;5.59;73.74;100535.03;4960472;28;20038;-92
2022/11/11 03:53:39;;;;;;;31.63;15.40;;;;;;;5.49;73.32;100529.28;4944096;28;20034;-92
2022/11/11 03:56:04;;;;;;;27.60;14.45;;;;;;;5.44;73.63;100537.09;4943931;28;20124;-93
2022/11/11 03:58:30;;;;;;;28.25;15.65;;;;;;;5.56;73.16;100535.47;4960811;28;20027;-92
2022/11/11 04:00:55;;;;;;;27.98;14.38;;;;;;;5.73;72.90;100535.84;4960253;28;20177;-92
2022/11/11 04:11:39;;;;;;;36.22;15.07;;;;;;;5.98;71.80;100529.88;4965504;28;20073;-92
2022/11/11 04:16:53;;;;;;;31.05;15.85;;;;;;;5.77;73.43;100528.22;4964719;28;20065;-92
2022/11/11 04:22:03;;;;;;;30.55;15.93;;;;;;;5.83;73.70;100530.91;4946749;28;20512;-92
2022/11/11 04:27:14;;;;;;;34.28;14.75;;;;;;;5.76;73.79;100537.28;4959865;28;20096;-92
2022/11/11 04:29:39;;;;;;;27.92;14.73;;;;;;;5.65;73.10;100538.72;4944504;28;20062;-93
2022/11/11 04:34:56;;;;;;;34.30;15.98;;;;;;;5.69;73.25;100545.31;4979922;28;20097;-93
2022/11/11 04:37:22;;;;;;;27.08;14.82;;;;;;;5.57;73.50;100542.44;4944767;28;20494;-92
2022/11/11 04:42:32;;;;;;;28.38;14.75;;;;;;;5.69;73.01;100547.97;4958727;28;20037;-92
2022/11/11 04:48:05;;;;;;;25.00;14.73;;;;;;;5.73;73.04;100559.06;4959342;28;20046;-92
2022/11/11 04:50:32;;;;;;;26.98;15.35;;;;;;;5.79;73.11;100542.19;4941948;28;20026;-93
2022/11/11 04:52:58;;;;;;;26.65;14.85;;;;;;;5.82;72.81;100536.44;4948382;28;20026;-92
2022/11/11 04:58:08;;;;;;;28.20;15.52;;;;;;;5.91;72.57;100540.53;4964714;28;20472;-91
2022/11/11 05:00:33;;;;;;;28.42;14.82;;;;;;;6.02;72.64;100545.28;4963952;28;20030;-93
2022/11/11 05:11:13;;;;;;;35.03;15.38;;;;;;;6.35;72.16;100564.91;4968932;28;20098;-92
2022/11/11 05:21:56;;;;;;;27.58;15.10;;;;;;;6.52;71.96;100573.31;4963872;28;20045;-91
2022/11/11 05:27:09;;;;;;;32.72;15.88;;;;;;;6.44;72.21;100567.16;4967271;28;20056;-90
2022/11/11 05:29:37;;;;;;;25.83;15.40;;;;;;;6.44;71.94;100559.13;4948589;28;20029;-91
2022/11/11 05:32:03;;;;;;;25.40;14.68;;;;;;;6.55;72.12;100559.50;4953545;28;20030;-95
2022/11/11 05:34:29;;;;;;;33.25;18.05;;;;;;;6.56;71.84;100577.22;4957315;28;20045;-94
2022/11/11 05:36:54;;;;;;;34.67;17.13;;;;;;;6.60;71.83;100571.22;4979061;28;20061;-91
2022/11/11 05:39:20;;;;;;;32.60;16.42;;;;;;;6.63;71.91;100581.47;4947982;28;20077;-94
2022/11/11 05:41:45;;;;;;;35.55;17.30;;;;;;;6.79;71.84;100595.44;4971582;28;20113;-93
2022/11/11 05:44:11;;;;;;;29.42;16.83;;;;;;;6.77;72.17;100573.41;4949876;28;20394;-92
2022/11/11 05:46:36;;;;;;;37.03;18.30;;;;;;;6.85;72.00;100583.88;4962270;28;20504;-94
2022/11/11 05:49:14;;;;;;;33.38;16.27;;;;;;;6.91;71.48;100582.16;4945467;28;20101;-92
2022/11/11 05:51:40;;;;;;;33.53;17.55;;;;;;;6.96;71.10;100585.03;4979643;28;20019;-94
2022/11/11 05:54:06;;;;;;;36.80;17.75;;;;;;;7.04;70.78;100599.00;4960370;28;20022;-93
2022/11/11 05:56:31;;;;;;;35.20;17.13;;;;;;;6.97;71.42;100616.13;4961859;28;20019;-91
2022/11/11 05:58:57;;;;;;;31.77;18.00;;;;;;;6.98;71.50;100594.50;4961120;28;20026;-91
2022/11/11 06:01:22;;;;;;;39.63;18.63;;;;;;;7.13;70.81;100591.53;4943885;28;20027;-92
2022/11/11 06:03:48;;;;;;;41.70;20.02;;;;;;;7.14;71.36;100597.69;4961582;28;20046;-93
2022/11/11 06:06:13;;;;;;;36.90;17.30;;;;;;;7.18;71.37;100601.59;4961210;28;20023;-92
2022/11/11 06:08:39;;;;;;;30.42;17.38;;;;;;;7.33;71.05;100620.06;4961134;28;20027;-92
2022/11/11 06:11:05;;;;;;;36.22;18.73;;;;;;;7.28;71.04;100594.75;4960136;28;20027;-93
2022/11/11 06:13:36;;;;;;;35.92;18.35;;;;;;;7.48;71.22;100634.78;4961095;28;20535;-96
2022/11/11 06:16:03;;;;;;;61.93;28.10;;;;;;;7.27;71.75;100613.69;4964301;28;20067;-93
2022/11/11 06:18:28;;;;;;;33.13;19.23;;;;;;;7.31;71.45;100614.09;4942603;29;20290;-95
2022/11/11 06:20:54;;;;;;;45.13;19.25;;;;;;;7.44;71.06;100632.75;4942398;29;20034;-95
2022/11/11 06:23:20;;;;;;;37.13;18.20;;;;;;;7.41;70.31;100622.47;4945947;29;20019;-96
2022/11/11 06:28:29;;;;;;;38.85;18.75;;;;;;;7.41;70.29;100627.84;4943162;29;20566;-93
2022/11/11 06:31:42;;;;;;;36.33;19.92;;;;;;;7.55;70.48;100656.16;4930110;28;20035;-95
2022/11/11 06:34:07;;;;;;;44.45;19.33;;;;;;;7.56;69.83;100633.69;4962374;28;20035;-93
2022/11/11 06:36:33;;;;;;;35.65;18.45;;;;;;;7.67;70.28;100657.09;4927339;28;20042;-95
2022/11/11 06:38:59;;;;;;;36.35;19.88;;;;;;;7.75;69.92;100649.84;4928307;28;20062;-92
2022/11/11 06:41:24;;;;;;;41.28;19.80;;;;;;;7.69;69.65;100647.00;4960121;28;20053;-93
2022/11/11 06:43:50;;;;;;;41.08;21.10;;;;;;;7.63;70.03;100644.38;4944717;28;20031;-95
2022/11/11 06:46:19;;;;;;;36.95;20.33;;;;;;;7.56;70.09;100646.28;4924553;29;20028;-89
2022/11/11 06:48:48;;;;;;;37.40;21.35;;;;;;;7.75;69.83;100672.13;4958100;28;20031;-91
2022/11/11 06:51:15;;;;;;;55.53;21.80;;;;;;;7.76;70.40;100662.19;4926612;28;20037;-93
2022/11/11 06:53:41;;;;;;;44.55;21.80;;;;;;;7.71;70.56;100654.00;4950986;28;20054;-93
2022/11/11 06:56:12;;;;;;;50.35;21.73;;;;;;;7.63;70.77;100652.41;4945118;28;20023;-94
2022/11/11 06:58:38;;;;;;;48.00;21.40;;;;;;;7.66;71.19;100647.44;4929123;28;20046;-94
2022/11/11 07:01:08;;;;;;;83.25;34.55;;;;;;;7.83;72.12;100677.22;4944877;28;20038;-94
2022/11/11 07:03:40;;;;;;;46.55;22.52;;;;;;;7.92;71.97;100645.56;4932588;28;20050;-95
2022/11/11 07:06:05;;;;;;;46.70;23.30;;;;;;;7.83;72.53;100663.81;4945039;28;20073;-95
2022/11/11 07:08:31;;;;;;;38.35;24.05;;;;;;;7.72;73.88;100659.16;4929830;28;20075;-96
2022/11/11 07:11:07;;;;;;;40.97;22.35;;;;;;;7.92;73.24;100660.84;4933137;28;20027;-96
2022/11/11 07:13:37;;;;;;;48.55;24.45;;;;;;;7.87;74.86;100662.31;4935951;28;20027;-95
2022/11/11 07:16:04;;;;;;;45.45;24.60;;;;;;;7.98;74.90;100673.38;4965425;28;20019;-93
2022/11/11 07:18:29;;;;;;;52.70;25.75;;;;;;;7.83;75.52;100661.13;4961859;28;20023;-93
2022/11/11 07:20:54;;;;;;;47.47;26.33;;;;;;;8.01;76.15;100679.16;4962880;28;20158;-96
2022/11/11 07:23:20;;;;;;;48.25;24.50;;;;;;;7.99;75.75;100683.06;4946861;28;20033;-92
2022/11/11 07:25:45;;;;;;;46.90;24.77;;;;;;;8.16;74.94;100692.22;4948500;28;20085;-90
2022/11/11 07:28:11;;;;;;;48.40;25.17;;;;;;;8.18;74.29;100668.69;4946287;28;20018;-93
2022/11/11 07:30:36;;;;;;;46.10;23.30;;;;;;;8.38;74.44;100679.19;4948502;28;20026;-92
2022/11/11 07:33:02;;;;;;;50.65;24.67;;;;;;;8.47;74.48;100672.56;4943203;28;20034;-93
2022/11/11 07:35:28;;;;;;;67.88;37.22;;;;;;;8.50;76.79;100674.78;4946620;28;20193;-92
2022/11/11 07:37:53;;;;;;;59.67;32.00;;;;;;;8.35;77.90;100697.63;4944770;28;20026;-93
2022/11/11 07:40:19;;;;;;;59.13;28.90;;;;;;;8.30;77.95;100691.06;4944868;28;20519;-92
2022/11/11 07:42:44;;;;;;;54.17;28.38;;;;;;;8.37;77.83;100682.13;4936757;28;20026;-93
2022/11/11 07:45:11;;;;;;;45.75;26.38;;;;;;;8.35;78.31;100660.06;4947134;28;20014;-92
2022/11/11 07:47:36;;;;;;;44.60;26.67;;;;;;;8.47;78.30;100694.03;4948798;28;20030;-96
2022/11/11 07:50:07;;;;;;;55.88;28.83;;;;;;;8.46;78.71;100683.50;4949542;28;20098;-95
2022/11/11 07:52:36;;;;;;;52.75;30.08;;;;;;;8.30;79.51;100660.72;4963134;28;20122;-92
2022/11/11 07:55:01;;;;;;;51.53;29.27;;;;;;;8.42;78.33;100690.34;4963086;28;20030;-92
2022/11/11 07:57:27;;;;;;;45.50;27.98;;;;;;;8.57;77.60;100698.03;4945030;28;20030;-91
2022/11/11 07:59:55;;;;;;;53.33;29.13;;;;;;;8.35;77.46;100676.16;4944063;28;20038;-92
2022/11/11 08:02:20;;;;;;;50.45;26.77;;;;;;;8.48;77.84;100694.84;4949944;28;20082;-91
2022/11/11 08:04:47;;;;;;;48.28;26.55;;;;;;;8.46;78.36;100702.28;4962837;28;20023;-91
2022/11/11 08:07:12;;;;;;;49.58;26.50;;;;;;;8.19;78.26;100686.41;4943474;28;20084;-92
2022/11/11 08:09:38;;;;;;;57.72;30.25;;;;;;;8.14;79.44;100704.22;4944851;28;20037;-92
2022/11/11 08:14:47;;;;;;;44.95;25.35;;;;;;;8.17;79.65;100696.53;4961757;28;20085;-93
2022/11/11 08:17:16;;;;;;;53.88;31.42;;;;;;;8.23;79.82;100709.06;4948366;28;20043;-91
2022/11/11 08:19:44;;;;;;;41.67;26.73;;;;;;;8.20;79.25;100703.34;4955906;28;20022;-93
2022/11/11 08:22:10;;;;;;;49.92;27.88;;;;;;;8.38;79.66;100710.59;4953656;28;20053;-93
2022/11/11 08:24:38;;;;;;;47.53;25.95;;;;;;;8.36;80.43;100715.34;4949969;28;20027;-92
2022/11/11 08:27:05;;;;;;;43.45;25.17;;;;;;;8.50;79.13;100715.03;4968097;28;20415;-92
2022/11/11 08:29:31;;;;;;;44.58;26.73;;;;;;;8.56;79.59;100723.25;4952249;28;20121;-93
2022/11/11 08:31:56;;;;;;;40.25;24.13;;;;;;;8.56;79.87;100740.19;4951875;28;20033;-94
2022/11/11 08:34:25;;;;;;;44.05;25.77;;;;;;;8.49;79.83;100734.06;4946903;28;20034;-91
2022/11/11 08:36:50;;;;;;;44.92;26.33;;;;;;;8.53;78.63;100721.84;4979950;28;20023;-94
2022/11/11 08:39:16;;;;;;;53.45;28.35;;;;;;;8.56;79.37;100740.19;4949474;28;20026;-93
2022/11/11 08:41:44;;;;;;;82.32;44.00;;;;;;;8.35;80.38;100730.66;4966017;28;20023;-92
2022/11/11 08:44:09;;;;;;;34.28;19.90;;;;;;;8.60;82.67;100745.94;4948278;28;20023;-93
2022/11/11 08:46:37;;;;;;;38.65;20.77;;;;;;;8.95;86.80;100748.06;4962584;28;20033;-93
2022/11/11 08:49:03;;;;;;;19.15;11.50;;;;;;;9.33;86.90;100750.50;4948824;28;20037;-94
2022/11/11 08:51:29;;;;;;;16.77;9.52;;;;;;;9.51;86.21;100746.97;4949329;28;20496;-92
2022/11/11 08:53:54;;;;;;;15.63;8.45;;;;;;;9.82;85.37;100756.66;4965524;28;20026;-93
2022/11/11 08:56:20;;;;;;;15.90;9.05;;;;;;;9.79;85.16;100732.09;4950289;28;20409;-93
2022/11/11 08:58:45;;;;;;;42.08;20.27;;;;;;;9.88;82.98;100745.00;4968119;28;20038;-93
2022/11/11 09:01:21;;;;;;;17.98;11.82;;;;;;;9.87;82.79;100735.25;4963932;28;20030;-92
2022/11/11 09:03:47;;;;;;;16.67;9.07;;;;;;;10.21;83.54;100759.81;4960786;28;20123;-93
2022/11/11 09:06:12;;;;;;;45.63;24.77;;;;;;;10.29;83.18;100751.41;4974213;28;20457;-91
2022/11/11 09:08:40;;;;;;;11.95;7.97;;;;;;;10.28;82.68;100730.91;4947416;28;20815;-92
2022/11/11 09:11:06;;;;;;;11.65;7.40;;;;;;;10.33;82.73;100740.97;4964650;28;20518;-95
2022/11/11 09:13:31;;;;;;;10.57;6.63;;;;;;;10.51;81.70;100740.06;4950250;28;20079;-95
2022/11/11 09:16:38;;;;;;;9.25;6.63;;;;;;;10.69;81.26;100758.00;4968839;28;20027;-94
2022/11/11 09:19:04;;;;;;;8.82;5.72;;;;;;;10.72;81.02;100742.16;4970676;28;20042;-93
2022/11/11 09:21:32;;;;;;;15.25;6.80;;;;;;;10.69;80.91;100741.84;4950672;28;20039;-94
2022/11/11 09:24:00;;;;;;;9.88;6.25;;;;;;;10.81;80.25;100747.19;4948949;28;20043;-93
2022/11/11 09:26:28;;;;;;;14.48;7.32;;;;;;;10.87;79.61;100743.56;4964536;28;20110;-94
2022/11/11 09:34:34;;;;;;;12.38;7.45;;;;;;;10.95;79.99;100745.06;4997749;28;20126;-94
2022/11/11 09:37:04;;;;;;;11.27;7.00;;;;;;;10.92;80.60;100751.75;4982309;28;20034;-95
2022/11/11 09:39:33;;;;;;;9.35;6.15;;;;;;;10.93;78.94;100742.59;4950342;28;20039;-96
2022/11/11 09:42:31;;;;;;;;;;;;;;;;;;;;;
2022/11/11 09:48:01;;;;;;;6.45;4.35;;;;;;;10.93;78.46;100739.91;4970748;28;20098;-94
2022/11/11 09:50:53;;;;;;;7.38;4.45;;;;;;;10.96;78.00;100746.69;4963996;28;20038;-96
2022/11/11 09:53:29;;;;;;;7.72;5.53;;;;;;;10.85;78.28;100749.19;4934976;28;20121;-94
2022/11/11 09:56:34;;;;;;;7.38;5.03;;;;;;;10.82;78.68;100740.75;4931470;28;20033;-95
2022/11/11 10:03:18;;;;;;;;;;;;;;;;;;;;;
2022/11/11 10:08:26;;;;;;;10.38;6.90;;;;;;;10.41;79.76;100743.34;5188138;22;20058;-96
2022/11/11 10:11:14;;;;;;;;;;;;;;;10.57;79.44;100767.94;4978824;28;20050;-96
2022/11/11 10:20:05;;;;;;;12.25;7.70;;;;;;;10.64;79.35;100771.31;5032090;23;20036;-96
2022/11/11 10:22:33;;;;;;;12.18;8.13;;;;;;;10.54;79.26;100749.53;4922624;29;20421;-94
2022/11/11 10:25:11;;;;;;;11.40;7.85;;;;;;;10.64;79.19;100760.56;4907028;29;20720;-95
2022/11/11 10:27:42;;;;;;;13.43;8.35;;;;;;;10.57;79.22;100751.78;4934883;29;20513;-94
2022/11/11 10:30:31;;;;;;;10.50;7.55;;;;;;;10.72;79.90;100777.19;4902432;29;20206;-96
2022/11/11 10:33:23;;;;;;;11.90;8.10;;;;;;;10.65;78.46;100746.88;4947382;29;20031;-96
2022/11/11 10:35:50;;;;;;;11.60;7.97;;;;;;;10.67;78.68;100773.56;4932476;29;20057;-94
2022/11/11 10:38:48;;;;;;;11.95;7.47;;;;;;;10.80;77.62;100761.72;4919457;29;20478;-93
2022/11/11 10:41:39;;;;;;;12.60;8.07;;;;;;;10.71;78.20;100745.91;4930450;29;20047;-94
2022/11/11 10:44:25;;;;;;;13.40;8.47;;;;;;;10.68;78.18;100740.19;4931861;29;20094;-94
2022/11/11 10:47:32;;;;;;;11.63;7.22;;;;;;;10.82;77.71;100746.97;4906792;29;20028;-94
2022/11/11 10:50:22;;;;;;;16.58;9.65;;;;;;;10.98;77.16;100733.81;4881730;28;20043;-95
2022/11/11 10:53:14;;;;;;;15.48;8.50;;;;;;;11.12;76.03;100741.41;4906275;29;20063;-94
2022/11/11 10:55:56;;;;;;;16.55;9.60;;;;;;;11.22;76.17;100742.66;4927980;29;20043;-96
2022/11/11 10:58:24;;;;;;;17.15;9.40;;;;;;;11.39;75.72;100750.81;4908440;29;20490;-94
2022/11/11 11:00:51;;;;;;;18.27;9.90;;;;;;;11.39;74.84;100738.13;4967087;28;20158;-95
2022/11/11 11:03:43;;;;;;;12.57;9.10;;;;;;;11.62;73.95;100766.94;4935347;28;20047;-96
2022/11/11 11:06:39;;;;;;;;;;;;;;;;;;;;;
2022/11/11 11:09:34;;;;;;;15.13;9.73;;;;;;;11.36;74.09;100735.94;4936815;29;20127;-95
2022/11/11 11:12:20;;;;;;;14.07;9.80;;;;;;;11.56;73.50;100746.31;4925350;29;20039;-96
2022/11/11 11:14:49;;;;;;;18.65;11.63;;;;;;;11.79;74.43;100766.97;4921684;29;20032;-96
2022/11/11 11:17:33;;;;;;;18.25;10.43;;;;;;;11.78;73.59;100765.31;4912787;29;20027;-96
2022/11/11 11:20:37;;;;;;;;;;;;;;;11.69;73.91;100774.88;4912552;29;20475;-96
2022/11/11 11:23:03;;;;;;;17.40;10.70;;;;;;;11.30;75.38;100755.78;4889790;29;19916;-96
2022/11/11 11:25:33;;;;;;;22.85;12.43;;;;;;;11.05;75.71;100751.50;4862559;29;20062;-96
2022/11/11 11:28:17;;;;;;;20.65;12.38;;;;;;;10.86;76.93;100755.41;4912454;29;20043;-96
2022/11/11 11:30:57;;;;;;;22.17;13.25;;;;;;;10.86;76.38;100758.09;4949016;29;20023;-93
2022/11/11 11:33:22;;;;;;;19.60;12.73;;;;;;;10.77;77.00;100762.19;4901373;29;20043;-90
2022/11/11 11:35:49;;;;;;;22.75;14.45;;;;;;;10.71;77.05;100766.66;4928469;29;20039;-91
2022/11/11 11:38:15;;;;;;;23.80;13.77;;;;;;;10.71;77.60;100762.09;4928924;29;20080;-91
2022/11/11 11:40:57;;;;;;;18.45;12.10;;;;;;;10.75;77.58;100751.66;4928410;29;20126;-91
2022/11/11 11:43:31;;;;;;;19.00;12.20;;;;;;;10.78;77.29;100764.66;4919347;29;20161;-92
2022/11/11 11:45:58;;;;;;;20.40;12.23;;;;;;;10.78;77.17;100763.84;4929990;29;20047;-95
2022/11/11 11:49:03;;;;;;;20.95;12.93;;;;;;;10.69;77.71;100769.59;4895817;29;20034;-92
2022/11/11 11:51:43;;;;;;;19.45;12.63;;;;;;;10.75;77.03;100767.00;4916366;29;20035;-92
2022/11/11 11:54:36;;;;;;;20.02;12.07;;;;;;;10.91;76.58;100783.28;4901572;29;20035;-94
2022/11/11 11:57:03;;;;;;;20.33;12.48;;;;;;;10.78;76.78;100759.25;4915437;29;20060;-92
2022/11/11 11:59:36;;;;;;;19.48;11.70;;;;;;;10.98;76.31;100783.16;4894337;29;20029;-93
2022/11/11 12:02:02;;;;;;;23.67;12.93;;;;;;;11.02;76.50;100788.88;4901772;29;20072;-93
2022/11/11 12:05:05;;;;;;;18.17;11.63;;;;;;;10.91;76.01;100764.44;4901901;29;20047;-93
2022/11/11 12:07:54;;;;;;;20.85;12.57;;;;;;;11.02;76.25;100784.31;4887700;29;20154;-94
2022/11/11 12:10:45;;;;;;;18.23;11.90;;;;;;;10.89;77.06;100760.31;4900434;29;20036;-92
2022/11/11 12:13:32;;;;;;;29.63;17.42;;;;;;;11.09;77.01;100787.69;4883719;29;20029;-94
2022/11/11 12:16:20;;;;;;;21.67;14.18;;;;;;;11.07;76.67;100775.53;4899174;29;20036;-92
2022/11/11 12:18:56;;;;;;;21.00;11.95;;;;;;;10.80;76.87;100749.06;4910889;29;20044;-94
2022/11/11 12:21:27;;;;;;;17.92;12.38;;;;;;;11.05;77.03;100777.63;4901807;29;20515;-92
2022/11/11 12:24:02;;;;;;;18.42;11.93;;;;;;;11.04;77.42;100771.44;4904781;29;20047;-96
2022/11/11 12:26:53;;;;;;;20.05;11.40;;;;;;;10.78;77.15;100755.75;4918592;29;20466;-92
2022/11/11 12:29:37;;;;;;;17.77;10.35;;;;;;;10.99;77.04;100782.09;4937037;29;20454;-94
2022/11/11 12:32:15;;;;;;;19.42;11.75;;;;;;;11.01;77.63;100781.84;4938094;29;20111;-91
2022/11/11 12:35:15;;;;;;;20.17;11.30;;;;;;;11.01;77.12;100771.88;4937572;29;20036;-92
2022/11/11 12:37:53;;;;;;;19.27;11.38;;;;;;;11.02;77.74;100778.09;4904615;29;20486;-93
2022/11/11 12:40:39;;;;;;;17.52;10.32;;;;;;;10.85;76.98;100761.81;4920564;29;20027;-93
2022/11/11 12:43:21;;;;;;;18.95;10.35;;;;;;;11.08;77.15;100780.69;4938370;29;20094;-93
2022/11/11 12:46:18;;;;;;;16.60;11.07;;;;;;;11.18;77.79;100792.72;4918186;29;20057;-93
2022/11/11 12:49:08;;;;;;;17.83;11.27;;;;;;;11.16;77.56;100797.53;4914092;29;20095;-93
2022/11/11 12:52:04;;;;;;;16.90;10.15;;;;;;;11.23;76.22;100796.34;4905176;29;20483;-96
2022/11/11 12:54:53;;;;;;;13.27;9.00;;;;;;;11.10;77.52;100793.91;4901776;29;20028;-92
2022/11/11 12:57:36;;;;;;;17.00;10.57;;;;;;;11.15;77.15;100785.13;4916321;29;20032;-96
2022/11/11 13:00:17;;;;;;;14.45;9.00;;;;;;;11.11;76.48;100782.06;4888992;29;20035;-94
2022/11/11 13:03:04;;;;;;;13.68;8.65;;;;;;;11.09;76.77;100790.38;4900881;29;20095;-93
2022/11/11 13:05:37;;;;;;;12.05;7.50;;;;;;;10.95;77.32;100775.53;4896973;29;20036;-93
2022/11/11 13:08:21;;;;;;;10.27;7.22;;;;;;;11.17;76.82;100791.09;4900250;29;20557;-92
2022/11/11 13:11:20;;;;;;;10.20;6.78;;;;;;;11.24;75.96;100797.16;4902698;29;20034;-92
2022/11/11 13:14:16;;;;;;;10.00;5.75;;;;;;;11.20;76.55;100791.41;4898555;29;20052;-92
2022/11/11 13:16:44;;;;;;;9.77;6.20;;;;;;;11.13;76.53;100786.16;4884574;29;20036;-93
2022/11/11 13:19:31;;;;;;;12.40;7.72;;;;;;;11.34;76.62;100792.00;4888118;29;20414;-94
2022/11/11 13:22:36;;;;;;;12.63;6.65;;;;;;;11.35;76.11;100793.66;4906850;29;20056;-93
2022/11/11 13:25:03;;;;;;;12.15;7.55;;;;;;;11.19;76.17;100764.72;4915903;29;20071;-92
2022/11/11 13:28:01;;;;;;;17.00;9.60;;;;;;;11.22;77.04;100778.53;4902274;29;20165;-92